Aviation Digital Data Service (ADDS)

Output produced by METARs form (0734 UTC 19 February 2019)
found at http://www.aviationweather.gov/metar/data/
 
METAR text: FZNA 190600Z 09008KT 5000 HZ FEW014 BKN300 18/12 Q1020 NOSIG
Conditions at: FZNA (GOMA INTL AIRPOR, CD) observed 0600 UTC 19 February 2019
Temperature: 18.0°C (64°F)
Dewpoint: 12.0°C (54°F) [RH = 68%]
Pressure (altimeter): 30.12 inches Hg (1020.0 mb)
Winds: from the E (90 degrees) at 9 MPH (8 knots; 4.1 m/s)
Visibility: 3 miles ( 5 km)
Ceiling: 30000 feet AGL
Clouds: few clouds at 1400 feet AGL
broken clouds at 30000 feet AGL
Weather: HZ  (haze)

METAR text: FZNA 190500Z 05006KT 6000 FEW014 BKN300 16/12 Q1020 NOSIG
Conditions at: FZNA (GOMA INTL AIRPOR, CD) observed 0500 UTC 19 February 2019
Temperature: 16.0°C (61°F)
Dewpoint: 12.0°C (54°F) [RH = 77%]
Pressure (altimeter): 30.12 inches Hg (1020.0 mb)
Winds: from the NE (50 degrees) at 7 MPH (6 knots; 3.1 m/s)
Visibility: 4 miles ( 6 km)
Ceiling: 30000 feet AGL
Clouds: few clouds at 1400 feet AGL
broken clouds at 30000 feet AGL
Weather: no significant weather observed at this time

METAR text: FZNA 181700Z 00000KT 5000 HZ SCT016 BKN100 22/17 Q1018 NOSIG
Conditions at: FZNA (GOMA INTL AIRPOR, CD) observed 1700 UTC 18 February 2019
Temperature: 22.0°C (72°F)
Dewpoint: 17.0°C (63°F) [RH = 73%]
Pressure (altimeter): 30.06 inches Hg (1018.0 mb)
Winds: calm
Visibility: 3 miles ( 5 km)
Ceiling: 10000 feet AGL
Clouds: scattered clouds at 1600 feet AGL
broken clouds at 10000 feet AGL
Weather: HZ  (haze)

METAR text: FZNA 181600Z 16004KT 5000 HZ SCT016 OVC100 22/17 Q1018 RERASH NOSIG
Conditions at: FZNA (GOMA INTL AIRPOR, CD) observed 1600 UTC 18 February 2019
Temperature: 22.0°C (72°F)
Dewpoint: 17.0°C (63°F) [RH = 73%]
Pressure (altimeter): 30.06 inches Hg (1018.0 mb)
Winds: from the SSE (160 degrees) at 5 MPH (4 knots; 2.1 m/s)
Visibility: 3 miles ( 5 km)
Ceiling: 10000 feet AGL
Clouds: scattered clouds at 1600 feet AGL
overcast cloud deck at 10000 feet AGL
Weather: HZ  (haze)

METAR text: FZNA 181400Z 00000KT 5000 HZ SCT018 BKN110 24/16 Q1017 NOSIG
Conditions at: FZNA (GOMA INTL AIRPOR, CD) observed 1400 UTC 18 February 2019
Temperature: 24.0°C (75°F)
Dewpoint: 16.0°C (61°F) [RH = 61%]
Pressure (altimeter): 30.03 inches Hg (1017.0 mb)
Winds: calm
Visibility: 3 miles ( 5 km)
Ceiling: 11000 feet AGL
Clouds: scattered clouds at 1800 feet AGL
broken clouds at 11000 feet AGL
Weather: HZ  (haze)

METAR text: FZNA 181300Z 00000KT 6000 SCT018 BKN110 24/15 Q1018 NOSIG
Conditions at: FZNA (GOMA INTL AIRPOR, CD) observed 1300 UTC 18 February 2019
Temperature: 24.0°C (75°F)
Dewpoint: 15.0°C (59°F) [RH = 57%]
Pressure (altimeter): 30.06 inches Hg (1018.0 mb)
Winds: calm
Visibility: 4 miles ( 6 km)
Ceiling: 11000 feet AGL
Clouds: scattered clouds at 1800 feet AGL
broken clouds at 11000 feet AGL
Weather: no significant weather observed at this time

METAR text: FZNA 180800Z 09006KT 7000 SCT016 FEW018CB BKN100 21/16 Q1022 NOSIG
Conditions at: FZNA (GOMA INTL AIRPOR, CD) observed 0800 UTC 18 February 2019
Temperature: 21.0°C (70°F)
Dewpoint: 16.0°C (61°F) [RH = 73%]
Pressure (altimeter): 30.18 inches Hg (1022.0 mb)
Winds: from the E (90 degrees) at 7 MPH (6 knots; 3.1 m/s)
Visibility: 4 miles ( 7 km)
Ceiling: 10000 feet AGL
Clouds: scattered clouds at 1600 feet AGL
few clouds at 1800 feet AGL
broken clouds at 10000 feet AGL
Weather: no significant weather observed at this time

METAR text: FZNA 180700Z 00000KT 7000 SCT016 FEW018CB OVC100 21/18 Q1022 NOSIG
Conditions at: FZNA (GOMA INTL AIRPOR, CD) observed 0700 UTC 18 February 2019
Temperature: 21.0°C (70°F)
Dewpoint: 18.0°C (64°F) [RH = 83%]
Pressure (altimeter): 30.18 inches Hg (1022.0 mb)
Winds: calm
Visibility: 4 miles ( 7 km)
Ceiling: 10000 feet AGL
Clouds: scattered clouds at 1600 feet AGL
few clouds at 1800 feet AGL
overcast cloud deck at 10000 feet AGL
Weather: no significant weather observed at this time

METAR text: FZNA 180600Z VRB03KT 6000 SCT016 BKN100 19/16 Q1021 NOSIG
Conditions at: FZNA (GOMA INTL AIRPOR, CD) observed 0600 UTC 18 February 2019
Temperature: 19.0°C (66°F)
Dewpoint: 16.0°C (61°F) [RH = 83%]
Pressure (altimeter): 30.15 inches Hg (1021.0 mb)
Winds: variable direction winds at 3 MPH (3 knots; 1.5 m/s)
Visibility: 4 miles ( 6 km)
Ceiling: 10000 feet AGL
Clouds: scattered clouds at 1600 feet AGL
broken clouds at 10000 feet AGL
Weather: no significant weather observed at this time